Terminal Aerodrome Forecast
Issued by NWS

Home | Current Version | Previous Version | Text Only | Print | Product List | Glossary On
Versions: 1 2 3 4 5 6 7 8 9 10 11 12 13 14 15 16 17 18 19 20 21
000
FTUS43 KILX 282330
TAFCMI
TAF
KCMI 282330Z 2900/2924 17010KT P6SM SCT050 BKN250
     FM290600 16008KT P6SM BKN080
     FM291100 18008KT P6SM VCSH SCT035 BKN050
     FM291500 19012KT P6SM BKN035
     FM292300 21012KT P6SM VCTS BKN045CB=

USA.gov is the U.S. government's official web portal to all federal, state and local government web resources and services.